Time;durP1;ratioP1;P1;durP2;ratioP2;P2;SDS_P1;SDS_P2;PMS_P1;PMS_P2;Temp;Humidity;BMP_temperature;BMP_pressure;BME280_temperature;BME280_humidity;BME280_pressure;Samples;Min_cycle;Max_cycle;Signal;HPM_P1;HPM_P2
2022/05/21 00:01:30;;;;;;;2.00;1.50;;;;;;;15.37;56.30;99419.69;5046935;28;20242;-83
2022/05/21 00:03:57;;;;;;;2.57;1.73;;;;;;;15.29;55.91;99417.75;5047419;28;20211;-88
2022/05/21 00:06:25;;;;;;;2.47;1.80;;;;;;;15.23;56.41;99417.47;5046872;28;20227;-86
2022/05/21 00:08:52;;;;;;;2.30;1.50;;;;;;;15.15;55.61;99413.81;5047280;28;20198;-82
2022/05/21 00:11:19;;;;;;;4.83;1.70;;;;;;;15.11;56.28;99416.78;5047285;28;20223;-82
2022/05/21 00:13:48;;;;;;;2.63;1.70;;;;;;;15.06;56.30;99414.56;5046998;28;20207;-87
2022/05/21 00:16:15;;;;;;;4.27;1.63;;;;;;;15.05;56.61;99412.97;5047069;28;20642;-88
2022/05/21 00:18:42;;;;;;;2.80;1.90;;;;;;;15.03;56.39;99411.47;5046950;28;20203;-88
2022/05/21 00:21:09;;;;;;;3.07;1.60;;;;;;;14.99;56.49;99412.69;5046722;28;20233;-88
2022/05/21 00:23:37;;;;;;;1.97;1.60;;;;;;;14.95;56.96;99406.94;5046952;28;20591;-88
2022/05/21 00:26:06;;;;;;;2.60;1.60;;;;;;;14.96;56.64;99408.59;5047071;28;20207;-84
2022/05/21 00:28:33;;;;;;;1.80;1.50;;;;;;;14.99;57.13;99408.34;5046483;28;20197;-82
2022/05/21 00:31:01;;;;;;;2.57;1.80;;;;;;;14.99;57.19;99403.19;5046694;28;20695;-82
2022/05/21 00:33:29;;;;;;;2.97;1.50;;;;;;;14.95;57.14;99396.66;5046724;28;20203;-86
2022/05/21 00:35:56;;;;;;;2.50;1.80;;;;;;;14.89;57.58;99397.19;5046821;28;20224;-88
2022/05/21 00:38:23;;;;;;;2.20;1.70;;;;;;;14.90;58.07;99401.41;5046772;28;20195;-82
2022/05/21 00:40:53;;;;;;;2.27;1.60;;;;;;;14.89;57.76;99392.03;5046633;28;20237;-87
2022/05/21 00:43:39;;;;;;;2.57;1.70;;;;;;;14.85;57.89;99388.09;5047333;28;20196;-84
2022/05/21 00:46:09;;;;;;;4.03;1.67;;;;;;;14.85;58.19;99390.66;5046497;28;20209;-83
2022/05/21 00:48:37;;;;;;;3.63;1.63;;;;;;;14.78;58.37;99385.25;5046956;28;20202;-84
2022/05/21 00:51:05;;;;;;;3.60;1.60;;;;;;;14.72;57.98;99380.63;5046841;28;20203;-82
2022/05/21 00:53:33;;;;;;;2.33;1.50;;;;;;;14.70;58.81;99380.72;5046618;28;20207;-82
2022/05/21 00:56:01;;;;;;;2.00;1.60;;;;;;;14.71;59.19;99374.63;5046373;28;20205;-83
2022/05/21 01:01:16;;;;;;;2.00;1.60;;;;;;;14.74;59.87;99372.75;5046387;28;20242;-88
2022/05/21 01:03:44;;;;;;;2.23;1.50;;;;;;;14.68;59.62;99368.94;5046367;28;20204;-82
2022/05/21 01:06:11;;;;;;;3.03;1.60;;;;;;;14.74;59.90;99375.31;5045915;28;20227;-82
2022/05/21 01:08:38;;;;;;;2.27;1.70;;;;;;;14.76;60.11;99376.03;5046469;28;20206;-87
2022/05/21 01:11:11;;;;;;;2.93;1.70;;;;;;;14.75;60.38;99369.22;5046027;28;20237;-88
2022/05/21 01:13:40;;;;;;;2.37;1.60;;;;;;;14.76;60.11;99365.72;5046066;28;20689;-88
2022/05/21 01:16:08;;;;;;;2.83;1.50;;;;;;;14.69;59.80;99368.00;5045810;28;20205;-88
2022/05/21 01:18:36;;;;;;;1.93;1.50;;;;;;;14.70;60.29;99362.72;5046027;28;20200;-81
2022/05/21 01:21:03;;;;;;;3.40;1.40;;;;;;;14.68;60.34;99364.59;5045881;28;20265;-87
2022/05/21 01:23:31;;;;;;;2.17;1.53;;;;;;;14.58;60.36;99370.66;5046030;28;20215;-82
2022/05/21 01:26:00;;;;;;;2.30;1.40;;;;;;;14.58;60.44;99373.25;5045699;28;20682;-88
2022/05/21 01:28:31;;;;;;;1.70;1.33;;;;;;;14.49;60.65;99365.31;5046148;28;20205;-85
2022/05/21 01:31:00;;;;;;;2.20;1.60;;;;;;;14.45;61.09;99358.78;5045773;28;20590;-82
2022/05/21 01:33:29;;;;;;;1.53;1.37;;;;;;;14.45;61.53;99360.56;5045796;28;20209;-88
2022/05/21 01:35:57;;;;;;;3.03;1.50;;;;;;;14.43;61.54;99359.88;5045740;28;20220;-81
2022/05/21 01:38:25;;;;;;;1.63;1.30;;;;;;;14.46;61.15;99359.63;5045844;28;20555;-88
2022/05/21 01:40:53;;;;;;;4.07;1.57;;;;;;;14.40;62.34;99350.66;5049060;28;20226;-82
2022/05/21 01:46:05;;;;;;;1.67;1.40;;;;;;;14.35;62.06;99347.66;5049213;28;20733;-82
2022/05/21 01:48:33;;;;;;;2.10;1.50;;;;;;;14.37;61.83;99347.50;5048989;28;20212;-82
2022/05/21 01:51:00;;;;;;;1.77;1.50;;;;;;;14.37;61.66;99342.38;5048967;28;20212;-83
2022/05/21 01:53:28;;;;;;;2.37;1.60;;;;;;;14.39;61.62;99338.72;5049120;28;20197;-82
2022/05/21 01:55:59;;;;;;;3.47;1.77;;;;;;;14.42;61.87;99332.50;5049031;28;20213;-82
2022/05/21 01:58:26;;;;;;;1.57;1.43;;;;;;;14.41;62.29;99331.69;5048938;28;20203;-88
2022/05/21 02:00:54;;;;;;;2.73;1.43;;;;;;;14.41;62.33;99330.91;5049040;28;20508;-82
2022/05/21 02:03:21;;;;;;;1.80;1.40;;;;;;;14.36;62.56;99326.13;5048854;28;20212;-88
2022/05/21 02:05:48;;;;;;;3.33;1.40;;;;;;;14.30;62.84;99324.06;5048811;28;20212;-87
2022/05/21 02:08:16;;;;;;;2.43;1.40;;;;;;;14.29;63.17;99331.94;5048483;28;20320;-88
2022/05/21 02:10:44;;;;;;;1.70;1.40;;;;;;;14.29;62.94;99327.59;5048909;28;20212;-81
2022/05/21 02:13:16;;;;;;;4.73;1.60;;;;;;;14.27;62.71;99329.47;5048812;28;20276;-81
2022/05/21 02:15:43;;;;;;;2.20;1.50;;;;;;;14.27;62.32;99329.47;5048801;28;20665;-82
2022/05/21 02:18:10;;;;;;;3.37;1.67;;;;;;;14.28;62.09;99331.09;5048606;28;20224;-82
2022/05/21 02:20:37;;;;;;;1.73;1.50;;;;;;;14.26;61.94;99333.81;5048937;28;20203;-87
2022/05/21 02:23:04;;;;;;;2.30;1.50;;;;;;;14.31;62.08;99332.59;5048369;27;20612;-82
2022/05/21 02:25:31;;;;;;;2.17;1.37;;;;;;;14.25;62.52;99332.19;5048530;28;20223;-82
2022/05/21 02:27:58;;;;;;;1.50;1.40;;;;;;;14.19;63.18;99327.53;5048420;28;20213;-88
2022/05/21 02:30:27;;;;;;;3.00;1.53;;;;;;;14.13;63.45;99327.22;5048513;28;20215;-87
2022/05/21 02:32:54;;;;;;;3.27;1.53;;;;;;;14.11;64.26;99329.09;5048415;28;20307;-82
2022/05/21 02:35:21;;;;;;;2.17;1.47;;;;;;;14.04;64.35;99328.81;5048465;28;20211;-81
2022/05/21 02:40:32;;;;;;;2.57;1.90;;;;;;;13.98;64.77;99319.03;5048287;28;20284;-88
2022/05/21 02:42:59;;;;;;;3.70;1.70;;;;;;;13.97;64.95;99317.41;5048323;28;20240;-88
2022/05/21 02:45:29;;;;;;;3.97;1.60;;;;;;;13.95;65.32;99314.16;5048091;28;20204;-82
2022/05/21 02:47:57;;;;;;;2.97;1.83;;;;;;;13.90;65.80;99311.13;5048528;28;20224;-82
2022/05/21 02:50:25;;;;;;;5.07;1.70;;;;;;;13.84;65.91;99311.66;5048100;28;20260;-82
2022/05/21 02:52:52;;;;;;;2.30;1.70;;;;;;;13.83;65.58;99310.84;5048354;28;20231;-88
2022/05/21 02:55:19;;;;;;;4.00;1.57;;;;;;;13.81;66.04;99318.66;5048044;28;20511;-87
2022/05/21 02:57:47;;;;;;;3.30;1.40;;;;;;;13.77;65.70;99312.16;5047678;28;20231;-82
2022/05/21 03:00:17;;;;;;;2.80;1.53;;;;;;;13.79;65.54;99312.03;5048109;28;20598;-88
2022/05/21 03:02:45;;;;;;;3.57;1.40;;;;;;;13.80;65.76;99311.09;5047501;28;20824;-88
2022/05/21 03:05:12;;;;;;;3.07;1.60;;;;;;;13.79;65.89;99312.84;5047712;28;20200;-82
2022/05/21 03:07:40;;;;;;;2.30;1.63;;;;;;;13.82;65.52;99312.59;5048031;28;20227;-82
2022/05/21 03:10:22;;;;;;;3.03;1.47;;;;;;;13.79;65.86;99315.41;5047978;28;20592;-82
2022/05/21 03:12:53;;;;;;;2.83;1.33;;;;;;;13.77;65.92;99314.72;5047573;28;20734;-86
2022/05/21 03:15:24;;;;;;;1.80;1.40;;;;;;;13.78;66.20;99316.34;5047866;28;20223;-87
2022/05/21 03:17:52;;;;;;;2.90;1.40;;;;;;;13.76;66.75;99312.28;5047609;28;20492;-87
2022/05/21 03:20:21;;;;;;;2.97;1.60;;;;;;;13.72;66.71;99309.13;5047780;28;20681;-87
2022/05/21 03:22:48;;;;;;;2.10;1.60;;;;;;;13.75;66.60;99313.22;5047367;28;20701;-82
2022/05/21 03:25:15;;;;;;;4.67;1.93;;;;;;;13.79;66.80;99318.00;5048019;28;20210;-82
2022/05/21 03:27:43;;;;;;;1.97;1.50;;;;;;;13.77;66.85;99312.16;5047655;28;20223;-85
2022/05/21 03:30:14;;;;;;;4.40;1.70;;;;;;;13.81;66.59;99313.50;5047641;28;20213;-87
2022/05/21 03:32:41;;;;;;;3.70;1.40;;;;;;;13.80;66.71;99311.91;5047731;28;20310;-82
2022/05/21 03:35:11;;;;;;;2.37;1.40;;;;;;;13.81;66.59;99316.09;5047694;28;20203;-85
2022/05/21 03:37:38;;;;;;;2.80;1.70;;;;;;;13.82;66.92;99315.16;5047766;28;20220;-87
2022/05/21 03:40:07;;;;;;;1.93;1.40;;;;;;;13.84;66.85;99320.16;5047627;28;20195;-86
2022/05/21 03:42:34;;;;;;;2.67;1.40;;;;;;;13.86;66.95;99322.63;5047133;28;20720;-86
2022/05/21 03:45:01;;;;;;;1.57;1.40;;;;;;;13.86;67.31;99326.00;5047249;28;20195;-88
2022/05/21 03:47:28;;;;;;;2.20;1.60;;;;;;;13.87;67.38;99326.81;5047269;28;20617;-86
2022/05/21 03:49:55;;;;;;;2.70;1.70;;;;;;;13.86;67.49;99322.63;5047366;28;20203;-87
2022/05/21 03:52:23;;;;;;;2.53;1.57;;;;;;;13.90;67.35;99314.50;5047199;28;20250;-82
2022/05/21 03:54:51;;;;;;;2.80;1.53;;;;;;;13.95;67.30;99314.16;5047319;28;20212;-82
2022/05/21 03:57:18;;;;;;;2.47;1.53;;;;;;;13.98;67.20;99319.84;5046899;28;20239;-87
2022/05/21 03:59:45;;;;;;;3.37;1.50;;;;;;;14.04;67.98;99319.34;5047329;28;20657;-82
2022/05/21 04:02:12;;;;;;;1.40;1.30;;;;;;;14.13;67.26;99328.03;5045732;28;20231;-82
2022/05/21 04:04:39;;;;;;;1.67;1.50;;;;;;;14.16;67.47;99330.34;5047084;28;20195;-82
2022/05/21 04:07:07;;;;;;;3.13;1.60;;;;;;;14.22;67.44;99326.47;5047171;28;20239;-82
2022/05/21 04:09:36;;;;;;;2.80;1.50;;;;;;;14.27;67.75;99325.13;5047112;28;20777;-88
2022/05/21 04:12:04;;;;;;;2.23;1.50;;;;;;;14.37;67.87;99332.06;5046806;28;20224;-88
2022/05/21 04:14:31;;;;;;;3.37;1.63;;;;;;;14.43;67.68;99329.81;5046751;28;20200;-82
2022/05/21 04:17:00;;;;;;;2.03;1.63;;;;;;;14.53;67.67;99336.78;5046612;28;20219;-82
2022/05/21 04:19:27;;;;;;;1.93;1.50;;;;;;;14.66;67.22;99342.50;5047131;28;20195;-88
2022/05/21 04:21:55;;;;;;;3.10;1.73;;;;;;;14.78;67.28;99338.09;5046847;28;20810;-84
2022/05/21 04:24:21;;;;;;;2.47;1.70;;;;;;;14.92;66.73;99340.28;5047012;28;20199;-83
2022/05/21 04:26:51;;;;;;;2.00;1.60;;;;;;;15.14;66.96;99336.66;5046470;28;20714;-82
2022/05/21 04:29:18;;;;;;;1.70;1.60;;;;;;;15.30;65.54;99328.41;5046576;28;20205;-81
2022/05/21 04:31:44;;;;;;;3.57;1.70;;;;;;;15.44;64.49;99338.31;5046770;28;20229;-83
2022/05/21 04:34:13;;;;;;;1.93;1.67;;;;;;;15.69;64.94;99344.72;5046628;28;20207;-82
2022/05/21 04:36:40;;;;;;;3.43;1.70;;;;;;;15.96;63.38;99345.75;5046262;28;20648;-83
2022/05/21 04:39:08;;;;;;;2.27;1.57;;;;;;;16.20;62.73;99347.84;5046813;28;20200;-82
2022/05/21 04:41:35;;;;;;;1.83;1.40;;;;;;;16.42;62.24;99342.34;5046564;28;20245;-83
2022/05/21 04:44:04;;;;;;;2.20;1.30;;;;;;;16.68;61.58;99347.69;5046450;28;20211;-82
2022/05/21 04:46:32;;;;;;;2.00;1.50;;;;;;;16.92;61.29;99344.59;5046482;28;20307;-82
2022/05/21 04:48:59;;;;;;;2.43;1.70;;;;;;;17.19;60.39;99345.50;5046354;28;20239;-82
2022/05/21 04:51:26;;;;;;;2.50;1.70;;;;;;;17.42;58.82;99344.13;5046848;28;20649;-83
2022/05/21 04:53:53;;;;;;;3.87;1.60;;;;;;;17.71;57.58;99350.78;5046378;28;20195;-82
2022/05/21 04:56:20;;;;;;;3.53;1.50;;;;;;;18.06;57.61;99346.53;5046196;28;20605;-87
2022/05/21 04:58:47;;;;;;;3.27;1.50;;;;;;;18.33;56.02;99343.78;5046087;28;20673;-82
2022/05/21 05:01:15;;;;;;;1.93;1.43;;;;;;;18.63;56.54;99351.22;5046240;28;20232;-82
2022/05/21 05:03:42;;;;;;;1.63;1.33;;;;;;;18.88;53.58;99340.00;5045957;28;20231;-82
2022/05/21 05:06:09;;;;;;;2.23;1.50;;;;;;;19.22;56.94;99344.25;5046107;28;20651;-82
2022/05/21 05:08:37;;;;;;;4.90;1.93;;;;;;;19.46;53.92;99346.09;5046204;28;20202;-81
2022/05/21 05:11:04;;;;;;;2.33;1.40;;;;;;;19.71;53.33;99340.91;5045992;28;20283;-81
2022/05/21 05:13:30;;;;;;;2.87;1.80;;;;;;;19.96;51.26;99337.31;5047844;28;20202;-82
2022/05/21 05:15:57;;;;;;;3.80;1.50;;;;;;;20.20;52.50;99335.63;5049778;28;20665;-81
2022/05/21 05:18:30;;;;;;;2.90;1.63;;;;;;;20.40;49.19;99326.50;5049565;28;20204;-83
2022/05/21 05:20:57;;;;;;;2.70;1.70;;;;;;;20.55;48.34;99326.63;5049531;28;20207;-82
2022/05/21 05:23:24;;;;;;;4.93;1.50;;;;;;;20.79;48.65;99326.47;5049531;28;20251;-82
2022/05/21 05:25:52;;;;;;;2.37;1.57;;;;;;;21.03;48.24;99325.56;5049629;28;20212;-80
2022/05/21 05:28:22;;;;;;;2.77;1.60;;;;;;;21.27;46.29;99328.97;5049483;28;20223;-81
2022/05/21 05:30:49;;;;;;;2.37;1.47;;;;;;;21.54;46.41;99319.03;5049474;28;20214;-81
2022/05/21 05:33:16;;;;;;;4.27;1.50;;;;;;;21.64;45.66;99319.56;5049248;28;20227;-81
2022/05/21 05:35:48;;;;;;;1.70;1.60;;;;;;;21.87;47.90;99322.94;5049317;28;20207;-81
2022/05/21 05:38:16;;;;;;;2.20;1.50;;;;;;;22.20;45.48;99322.63;5049199;28;20256;-80
2022/05/21 05:40:46;;;;;;;2.67;1.60;;;;;;;22.53;45.18;99319.63;5049453;28;20211;-80
2022/05/21 05:43:13;;;;;;;4.67;1.80;;;;;;;22.64;42.80;99310.56;5049119;28;20677;-81
2022/05/21 05:45:40;;;;;;;3.50;1.60;;;;;;;22.85;44.75;99307.16;5049398;28;20209;-81
2022/05/21 05:48:07;;;;;;;3.03;1.80;;;;;;;23.13;45.39;99302.88;5049151;27;20230;-80
2022/05/21 05:50:35;;;;;;;3.27;1.77;;;;;;;23.41;43.43;99313.31;5049005;28;20213;-81
2022/05/21 05:53:04;;;;;;;6.90;1.70;;;;;;;23.68;42.28;99309.13;5048912;28;20268;-80
2022/05/21 05:55:31;;;;;;;2.33;1.55;;;;;;;23.89;42.86;99310.09;5049121;28;20208;-80
2022/05/21 05:57:59;;;;;;;3.75;1.60;;;;;;;24.08;40.16;99304.16;5048834;28;20743;-81
2022/05/21 06:00:25;;;;;;;2.75;1.55;;;;;;;24.27;39.54;99297.44;5048832;28;20614;-80
2022/05/21 06:03:01;;;;;;;2.17;1.50;;;;;;;24.43;39.20;99306.78;5049009;28;20234;-80
2022/05/21 06:05:30;;;;;;;1.88;1.55;;;;;;;24.69;40.68;99313.09;5048864;28;20209;-80
2022/05/21 06:08:00;;;;;;;2.63;1.50;;;;;;;24.89;38.83;99311.34;5049104;28;20231;-81
2022/05/21 06:10:30;;;;;;;2.55;1.42;;;;;;;24.96;39.05;99309.56;5049384;28;20203;-80
2022/05/21 06:12:58;;;;;;;2.03;1.70;;;;;;;25.04;40.70;99314.59;5048953;28;20242;-80
2022/05/21 06:15:26;;;;;;;4.65;1.40;;;;;;;25.28;39.25;99317.69;5049051;28;20207;-81
2022/05/21 06:17:53;;;;;;;11.02;1.60;;;;;;;25.56;38.47;99311.44;5048889;28;20224;-79
2022/05/21 06:20:22;;;;;;;7.95;1.60;;;;;;;25.74;37.33;99319.47;5048970;28;20592;-81
2022/05/21 06:22:49;;;;;;;2.03;1.50;;;;;;;25.94;37.73;99316.84;5048542;28;20231;-82
2022/05/21 06:25:18;;;;;;;5.63;1.80;;;;;;;26.25;38.12;99310.91;5048024;28;20204;-81
2022/05/21 06:27:48;;;;;;;1.60;1.40;;;;;;;26.16;37.53;99310.34;5048606;28;20781;-80
2022/05/21 06:30:15;;;;;;;3.63;1.65;;;;;;;26.30;37.85;99303.25;5048934;28;20195;-82
2022/05/21 06:32:43;;;;;;;6.82;1.75;;;;;;;26.71;39.95;99304.69;5048659;28;20618;-79
2022/05/21 06:35:10;;;;;;;2.55;1.70;;;;;;;27.08;37.88;99304.84;5048853;27;20272;-81
2022/05/21 06:37:37;;;;;;;4.95;1.92;;;;;;;27.28;36.32;99305.53;5048570;28;20723;-81
2022/05/21 06:40:06;;;;;;;2.03;1.60;;;;;;;27.58;38.50;99304.06;5048616;28;20204;-81
2022/05/21 06:42:33;;;;;;;3.55;1.60;;;;;;;27.70;35.48;99303.16;5049135;28;20250;-81
2022/05/21 06:45:02;;;;;;;4.07;1.65;;;;;;;27.88;33.30;99294.53;5048485;28;20210;-81
2022/05/21 06:47:29;;;;;;;3.83;1.73;;;;;;;28.16;37.20;99291.38;5048421;28;20319;-81
2022/05/21 06:49:57;;;;;;;1.60;1.50;;;;;;;28.50;34.81;99285.72;5048426;28;20209;-81
2022/05/21 06:52:24;;;;;;;2.55;1.70;;;;;;;28.69;32.54;99283.88;5048556;28;20223;-81
2022/05/21 06:54:51;;;;;;;2.53;1.70;;;;;;;28.88;32.35;99283.56;5048373;28;20231;-80
2022/05/21 06:57:18;;;;;;;7.30;2.10;;;;;;;29.05;31.82;99275.03;5048261;28;20668;-81
2022/05/21 06:59:45;;;;;;;7.05;2.10;;;;;;;28.98;31.83;99272.50;5048102;28;20204;-80
2022/05/21 07:02:14;;;;;;;5.30;2.00;;;;;;;29.08;30.93;99264.84;5048302;28;20227;-81
2022/05/21 07:07:34;;;;;;;8.48;2.10;;;;;;;28.77;31.54;99276.47;5048372;28;20232;-80
2022/05/21 07:10:03;;;;;;;3.28;1.90;;;;;;;28.85;31.67;99259.53;5048189;28;20210;-81
2022/05/21 07:12:31;;;;;;;4.57;2.20;;;;;;;28.45;30.94;99262.75;5048537;28;20226;-82
2022/05/21 07:14:58;;;;;;;3.60;1.90;;;;;;;28.93;32.19;99253.13;5048148;28;20226;-81
2022/05/21 07:17:26;;;;;;;3.33;1.90;;;;;;;29.12;30.33;99252.06;5048051;27;20242;-81
2022/05/21 07:19:53;;;;;;;4.50;1.92;;;;;;;29.29;29.57;99252.16;5048218;28;20226;-81
2022/05/21 07:22:21;;;;;;;4.53;1.80;;;;;;;29.42;32.60;99251.16;5047808;28;20228;-81
2022/05/21 07:24:48;;;;;;;3.55;1.77;;;;;;;29.51;28.50;99255.03;5047869;28;20199;-81
2022/05/21 07:27:15;;;;;;;2.53;1.85;;;;;;;29.72;30.64;99245.75;5048081;28;20750;-81
2022/05/21 07:29:43;;;;;;;6.45;1.90;;;;;;;29.63;28.79;99247.94;5047878;28;20592;-81
2022/05/21 07:32:21;;;;;;;3.30;1.70;;;;;;;29.56;29.13;99248.03;5047543;28;20230;-79
2022/05/21 07:34:49;;;;;;;2.20;1.65;;;;;;;29.95;31.79;99256.25;5047588;28;20665;-80
2022/05/21 07:37:16;;;;;;;4.22;1.80;;;;;;;29.86;28.56;99255.00;5046463;28;20234;-81
2022/05/21 07:39:43;;;;;;;2.08;1.75;;;;;;;29.88;30.25;99245.03;5047797;28;20200;-81
2022/05/21 07:42:10;;;;;;;3.47;1.67;;;;;;;30.11;30.07;99238.09;5047541;28;20219;-81
2022/05/21 07:44:36;;;;;;;3.85;1.70;;;;;;;30.09;29.21;99245.44;5047708;28;20235;-80
2022/05/21 07:47:04;;;;;;;3.55;1.67;;;;;;;29.90;32.96;99237.69;5047477;28;20219;-80
2022/05/21 07:49:31;;;;;;;3.35;1.83;;;;;;;29.99;30.85;99231.03;5047421;28;20191;-80
2022/05/21 07:51:59;;;;;;;5.00;2.00;;;;;;;30.24;30.34;99229.94;5047628;28;20227;-80
2022/05/21 07:54:26;;;;;;;3.47;1.70;;;;;;;30.71;29.50;99232.31;5047289;28;20200;-80
2022/05/21 07:56:53;;;;;;;6.60;1.73;;;;;;;30.92;28.77;99232.69;5047762;28;20231;-80
2022/05/21 07:59:21;;;;;;;1.92;1.52;;;;;;;31.09;28.86;99236.91;5047490;28;20196;-81
2022/05/21 08:01:48;;;;;;;1.98;1.50;;;;;;;30.74;27.92;99236.31;5047558;28;20227;-78
2022/05/21 08:04:17;;;;;;;1.90;1.70;;;;;;;30.98;29.42;99237.00;5047110;28;20227;-79
2022/05/21 08:06:44;;;;;;;3.45;1.70;;;;;;;31.41;25.71;99238.19;5047025;28;20235;-81
2022/05/21 08:09:12;;;;;;;3.35;1.65;;;;;;;31.71;28.06;99240.44;5047202;28;20222;-82
2022/05/21 08:11:39;;;;;;;1.70;1.58;;;;;;;31.87;26.88;99229.00;5046972;28;20226;-80
2022/05/21 08:14:08;;;;;;;4.45;1.60;;;;;;;31.70;27.72;99234.34;5047022;28;20208;-78
2022/05/21 08:16:35;;;;;;;2.83;1.50;;;;;;;32.05;28.91;99230.53;5047180;27;20234;-78
2022/05/21 08:19:02;;;;;;;4.53;1.60;;;;;;;31.93;25.65;99232.53;5046854;28;20211;-77
2022/05/21 08:21:29;;;;;;;4.63;1.70;;;;;;;32.04;27.25;99222.88;5047226;28;20231;-78
2022/05/21 08:27:01;;;;;;;4.75;1.65;;;;;;;31.88;25.60;99224.50;5047141;28;20273;-78
2022/05/21 08:29:31;;;;;;;5.47;2.08;;;;;;;32.05;22.50;99209.38;5047627;28;20622;-80
2022/05/21 08:31:59;;;;;;;5.25;2.30;;;;;;;32.42;24.00;99216.63;5047018;28;20231;-78
2022/05/21 08:34:26;;;;;;;9.13;2.80;;;;;;;32.78;24.21;99223.03;5047131;28;20684;-78
2022/05/21 08:36:54;;;;;;;10.02;3.17;;;;;;;33.11;24.58;99222.00;5046896;28;20219;-78
2022/05/21 08:39:22;;;;;;;18.15;3.53;;;;;;;33.39;24.31;99225.31;5046689;28;20200;-78
2022/05/21 08:41:54;;;;;;;13.77;3.08;;;;;;;33.21;20.94;99221.25;5046698;28;20231;-79
2022/05/21 08:44:34;;;;;;;25.60;4.68;;;;;;;33.61;22.70;99229.72;5046805;28;20234;-79
2022/05/21 08:47:09;;;;;;;5.28;1.95;;;;;;;33.54;21.05;99236.06;5046783;28;20234;-81
2022/05/21 08:49:43;;;;;;;12.32;4.43;;;;;;;33.69;22.69;99237.19;5045754;28;20209;-80
2022/05/21 08:52:17;;;;;;;4.70;1.67;;;;;;;33.76;22.03;99224.47;5046814;28;20222;-80
2022/05/21 08:54:46;;;;;;;4.13;2.00;;;;;;;34.22;24.16;99232.59;5046495;28;20766;-80
2022/05/21 08:57:18;;;;;;;4.47;1.88;;;;;;;34.39;23.74;99230.50;5046852;28;20223;-80
2022/05/21 09:00:01;;;;;;;3.97;1.77;;;;;;;34.59;23.42;99220.97;5046531;28;20191;-80
2022/05/21 09:02:32;;;;;;;1.90;1.70;;;;;;;34.40;25.75;99216.16;5046162;28;20758;-80
2022/05/21 09:04:59;;;;;;;2.40;1.90;;;;;;;34.42;23.44;99214.03;5046441;28;20240;-80
2022/05/21 09:07:30;;;;;;;2.83;1.80;;;;;;;33.70;24.54;99201.63;5046313;28;20231;-80
2022/05/21 09:10:12;;;;;;;12.93;2.97;;;;;;;34.20;27.66;99210.81;5046414;28;20195;-80
2022/05/21 09:12:50;;;;;;;26.83;7.10;;;;;;;34.15;26.25;99208.16;5046483;28;20283;-80
2022/05/21 09:18:04;;;;;;;13.30;3.10;;;;;;;34.06;24.54;99215.81;5046172;28;20220;-80
2022/05/21 09:20:38;;;;;;;3.95;2.53;;;;;;;34.33;25.84;99210.31;5046027;28;20200;-81
2022/05/21 09:23:05;;;;;;;8.68;1.98;;;;;;;34.38;27.08;99210.28;5046349;28;20231;-80
2022/05/21 09:25:32;;;;;;;5.25;2.05;;;;;;;34.61;26.26;99216.19;5046033;28;20243;-80
2022/05/21 09:28:06;;;;;;;4.13;1.95;;;;;;;34.61;25.61;99216.19;5046111;28;20229;-81
2022/05/21 09:30:35;;;;;;;2.63;1.80;;;;;;;34.21;27.06;99207.09;5046165;28;20203;-80
2022/05/21 09:33:21;;;;;;;2.70;1.77;;;;;;;34.10;27.05;99218.78;5046307;28;20215;-81
2022/05/21 09:35:52;;;;;;;4.47;1.90;;;;;;;34.07;24.83;99211.34;5046130;28;20626;-80
2022/05/21 09:38:23;;;;;;;3.20;1.88;;;;;;;34.19;26.08;99206.56;5046048;28;20212;-81
2022/05/21 09:40:50;;;;;;;2.25;1.60;;;;;;;34.23;23.18;99211.06;5046065;28;20215;-81
2022/05/21 09:46:19;;;;;;;5.40;1.95;;;;;;;33.97;22.59;99212.84;5045017;28;20199;-81
2022/05/21 09:48:46;;;;;;;16.52;2.40;;;;;;;33.66;22.21;99206.69;5045718;28;20199;-80
2022/05/21 09:51:30;;;;;;;3.85;1.80;;;;;;;33.93;23.64;99201.19;5045821;28;20268;-81
2022/05/21 09:53:58;;;;;;;3.17;1.83;;;;;;;33.90;23.17;99199.06;5046016;28;20475;-81
2022/05/21 09:56:26;;;;;;;4.72;2.10;;;;;;;34.22;23.41;99187.47;5045692;28;20717;-81
2022/05/21 09:59:12;;;;;;;5.13;2.00;;;;;;;34.27;20.89;99184.84;5045965;27;20207;-80
2022/05/21 10:01:41;;;;;;;2.75;1.90;;;;;;;34.51;22.94;99176.34;5049135;28;20215;-79
2022/05/21 10:04:16;;;;;;;3.65;1.88;;;;;;;34.49;22.16;99177.38;5048873;28;20226;-79
2022/05/21 10:06:47;;;;;;;3.65;2.10;;;;;;;34.56;22.58;99174.50;5049194;28;20235;-81
2022/05/21 10:12:08;;;;;;;2.53;2.00;;;;;;;34.68;21.91;99160.97;5048787;28;20232;-81
2022/05/21 10:14:41;;;;;;;3.80;2.47;;;;;;;34.80;21.52;99140.22;5048764;28;20773;-81
2022/05/21 10:17:15;;;;;;;6.00;2.05;;;;;;;34.92;19.85;99138.06;5048974;28;20249;-81
2022/05/21 10:19:54;;;;;;;4.43;2.10;;;;;;;35.01;23.18;99135.63;5048937;28;20208;-81
2022/05/21 10:22:32;;;;;;;4.82;2.20;;;;;;;34.86;21.46;99133.81;5048676;28;20255;-81
2022/05/21 10:25:06;;;;;;;3.83;2.10;;;;;;;35.16;21.76;99132.16;5048844;28;20261;-81
2022/05/21 10:27:52;;;;;;;5.28;1.90;;;;;;;34.79;22.39;99137.81;5048656;28;20224;-80
2022/05/21 10:30:28;;;;;;;2.90;1.80;;;;;;;34.75;20.43;99129.59;5048995;28;20207;-81
2022/05/21 10:33:09;;;;;;;2.03;1.80;;;;;;;35.08;24.40;99135.38;5048775;28;20223;-81
2022/05/21 10:36:07;;;;;;;1.80;1.58;;;;;;;35.20;21.89;99127.09;5048841;28;20696;-81
2022/05/21 10:38:45;;;;;;;2.17;1.80;;;;;;;35.26;21.53;99110.88;5014718;28;20610;-81
2022/05/21 10:41:24;;;;;;;3.28;2.00;;;;;;;35.49;22.61;99103.28;5048769;28;20431;-81
2022/05/21 10:44:03;;;;;;;3.53;2.05;;;;;;;35.66;22.04;99098.44;5048563;28;20297;-81
2022/05/21 10:46:41;;;;;;;3.22;1.90;;;;;;;35.76;23.41;99098.38;5048186;28;20262;-81
2022/05/21 10:49:40;;;;;;;3.33;1.77;;;;;;;35.42;19.93;99084.19;5048664;28;20248;-81
2022/05/21 10:52:15;;;;;;;3.40;1.80;;;;;;;35.55;22.71;99086.28;5017789;28;20219;-80
2022/05/21 10:55:00;;;;;;;3.58;2.00;;;;;;;35.45;22.67;99075.69;5048567;28;20183;-80
2022/05/21 10:57:48;;;;;;;3.72;1.90;;;;;;;35.43;23.18;99067.16;5048316;28;20231;-81
2022/05/21 11:00:25;;;;;;;2.15;1.80;;;;;;;34.98;21.21;99066.31;5048228;28;20208;-80
2022/05/21 11:03:17;;;;;;;4.50;1.98;;;;;;;34.36;23.02;99066.44;5048169;28;20715;-81
2022/05/21 11:06:11;;;;;;;3.03;2.08;;;;;;;34.46;23.49;99055.78;5048202;28;20204;-80
2022/05/21 11:08:46;;;;;;;1.90;1.70;;;;;;;34.25;23.17;99059.53;5035407;28;20203;-80
2022/05/21 11:11:32;;;;;;;3.63;1.80;;;;;;;34.25;23.41;99056.88;5048001;28;20200;-80
2022/05/21 11:14:06;;;;;;;2.03;1.70;;;;;;;34.32;24.11;99048.66;5048075;28;20199;-80
2022/05/21 11:16:41;;;;;;;2.63;2.08;;;;;;;34.52;23.45;99058.44;5048121;28;20228;-81
2022/05/21 11:19:16;;;;;;;3.30;2.05;;;;;;;34.76;24.05;99048.84;5048115;28;20202;-81
2022/05/21 11:21:50;;;;;;;4.60;1.75;;;;;;;34.58;22.76;99046.78;5048036;28;20223;-80
2022/05/21 11:24:23;;;;;;;4.80;3.10;;;;;;;34.59;21.20;99048.34;5047882;28;20231;-81
2022/05/21 11:26:56;;;;;;;4.15;2.80;;;;;;;34.91;20.82;99048.81;5047900;28;20215;-81
2022/05/21 11:29:33;;;;;;;2.92;2.15;;;;;;;35.07;20.67;99043.44;5047826;28;20195;-81
2022/05/21 11:37:41;;;;;;;4.75;3.10;;;;;;;34.85;15.89;99025.97;5048224;28;20810;-81
2022/05/21 11:40:10;;;;;;;4.57;2.60;;;;;;;34.80;16.17;99039.28;5047490;28;20211;-81
2022/05/21 11:42:49;;;;;;;5.63;2.70;;;;;;;34.82;17.93;99037.16;5045937;28;20222;-84
2022/05/21 11:45:23;;;;;;;6.15;2.75;;;;;;;34.87;16.54;99044.28;5046464;28;20625;-84
2022/05/21 11:47:54;;;;;;;8.35;4.50;;;;;;;35.00;16.62;99040.28;5047182;28;20227;-82
2022/05/21 11:50:29;;;;;;;7.72;3.70;;;;;;;35.00;16.96;99037.63;5045727;28;20223;-80
2022/05/21 11:53:09;;;;;;;5.47;1.92;;;;;;;34.87;16.98;99023.81;5046360;28;20230;-84
2022/05/21 11:56:03;;;;;;;2.22;1.88;;;;;;;35.15;18.87;99024.28;5103443;27;20626;-84
2022/05/21 11:59:12;;;;;;;3.25;1.90;;;;;;;34.61;18.89;99009.06;5051235;27;20673;-84
2022/05/21 12:02:09;;;;;;;2.80;2.10;;;;;;;34.72;18.33;99010.59;5037008;27;20243;-84
2022/05/21 12:04:55;;;;;;;3.90;2.47;;;;;;;34.76;16.51;99022.28;5094507;27;20219;-81
2022/05/21 12:08:01;;;;;;;6.07;3.42;;;;;;;34.92;18.70;99025.69;5103176;27;20220;-79
2022/05/21 12:10:51;;;;;;;6.57;2.90;;;;;;;34.88;18.95;99006.84;5083614;27;20673;-81
2022/05/21 12:13:21;;;;;;;3.95;2.30;;;;;;;35.02;19.10;99014.19;5095704;27;20219;-83
2022/05/21 12:15:50;;;;;;;4.20;2.00;;;;;;;34.87;20.58;98997.25;5151779;27;20283;-80
2022/05/21 12:18:37;;;;;;;2.22;1.70;;;;;;;34.63;17.74;98994.44;5151542;27;20730;-79